Hogtown, Indiana
Current Conditions -  °F | °C
As of 11:35 AM on Tuesday 27 Jan 2015 (Local Time) from KHNB Reporting Station
Overcast Overcast  
Wind Chill: 30°   Ceiling: 800
Heat Index: 30°   Visibility: 3mi
Dew Point: 27°   Wind: 0mph
Humidity: 86%   Direction: NA
Pressure: 30.11"   Gusts: NA
Location:  38.3773°N, 86.3787°W
Report Text: KHNB 271635Z AUTO 00000KT 3SM OVC008 M01/M03 A3011 RMK AO1
Loading
Personal Weather Stations






























Interactive Weather Map New forecast layout! Learn more

10-Day Weather Forecast

Advertisements
Track Severe Weather on mobile